Aérodrome :
LOGIN :

S'inscrire | Disclaimer

   EN    FR    IT 

 










Légende :    VFR   VFR Marginal   IFR   IFR Intensif   IFR Très Intensif
Visi : 
Plafond : 
>= 8 km
>= 3000ft
5 à 8 km
1000 à 3000 ft
1500m à 5 km
500 à 1000 ft
800 à 1500m
200 à 500 ft
< 800m
< 200 ft
Symboles :   Orages  Brouillard  Fortes neiges  Fortes précipitations  Vent > 20 kt
SIGMETs :   Divers  Orages  Givrage  Turbulence  Onde Orograph.  Cendres Volcan.






- Altitude de l'aérodrome : 158 ft
- Code IATA : QAR


EHDL - Deelen Airbase

DERNIER METAR :
  • 271455Z AUTO 05005KT 360V090 9999 DZRA FEW007 SCT012 BKN018 03/03 Q0996 GRN

METARs EXPIRÉS :
  • 271425Z AUTO 06006KT 350V110 9999 DZ SCT006 BKN007 BKN008 03/02 Q0995 YLO
  • 271355Z AUTO 08004KT 010V160 9999 -RA SCT006 BKN007 BKN009 03/02 Q0995 RERA REDZ YLO
  • 271325Z AUTO 11007KT 030V160 9999 -RADZ FEW006 SCT008 BKN020 03/02 Q0995 GRN
  • 271255Z AUTO 11007KT 030V170 9999 DZ FEW006 SCT008 BKN009 03/02 Q0995 GRN
  • 271225Z AUTO 12007KT 060V220 9999 DZRA FEW006 SCT007 BKN008 03/02 Q0996 GRN

Prévision TAF périmée.



MET'MAP, la Météo Aéronautique d'un coup d'oeil ! - Copyright ORBIFLY Décembre 2007 - Disclaimer

ORBIFLY MET'MAP TEAM :

Programmation & Développement : Alexandra Zaïnal
Sur une idée originale de : Baudouin d'Aumeries
Assistance à la programmation : Marc-Olivier Méhu
Soutien technique & logistique : Manuel Goepfert

Contact : metmap@orbifly.com




SOURCES & CREDITS :

   NOAA